Ride Results

NEEEC Saeed Almaktoum Endurance 66 Marathon (14-04-2017)
Ride distance: 80.0 km

Outcomes - NEEEC Saeed Almaktoum Endurance 66 Marathon (14-04-2017)
Division No. of Entries Retired / DNE Completed Withdrawn Ineligible V/O Percentage Completed
HW 3 - 1 - - 2 33.33%
MW 9 - 8 - - 1 88.89%
LW 15 - 10 1 - 4 66.67%
JN 7 - 4 - - 3 57.14%
Totals 34 - 23 1 - 10 67.65%
Results - NEEEC Saeed Almaktoum Endurance 66 Marathon (14-04-2017)
No. Rider Horse Place Time Leg Speeds Total
Km/Hr
H/R bpm
Heavyweight
246 David Mecoy Dulwich Mystique 1 (BC) 7:23:31 12.1, 9.7 10.82 43, 50, 55 (Avg:52)
140 Stuart King King Park Jean Paul Gaultier Lame L2 0:00:00 12.1, 9.7 - 32, 38, 49 (Avg:43)
212 Jan Lewin Rokewood Calgary Lame L2 0:00:00 11.4, 10.1 - 38, 47, 58 (Avg:52)
Middleweight
O Lisa Loranger Ralvon Splendour 1 (BC) 5:44:37 15.0, 12.9 13.93 29, 40, 42 (Avg:41)
92 Blaine Astell Karabah Tully 2 5:55:27 12.9, 14.0 13.50 31, 42, 50 (Avg:46)
21 Karen Quinn Distinctive-L-Zarin (au) 3 5:55:29 14.2, 12.8 13.50 35, 46, 55 (Avg:50)
156 David Anderson Jnr Deeka Park Bambino 4 6:20:33 13.1, 12.0 12.61 33, 48, 52 (Avg:50)
69 Tracey Wyllie AT Dial Range Jilly 5 6:38:18 12.4, 11.6 12.05 40, 44, 51 (Avg:47)
165 Danielle Taylor Black Pearl Bootstrap Bill 6 6:58:52 12.4, 10.5 11.46 40, 45, 52 (Avg:48)
29 Grace Huxtable Graceton TJ Ermita 7 6:58:56 12.4, 10.5 11.46 30, 50, 53 (Avg:51)
50 Joanne Marshall Rowallan Aspin 8 7:09:22 12.1, 10.3 11.18 34, 44, 49 (Avg:46)
22 Helen Astell Militaar Dixie Chick Heart Rate L2 0:00:00 20.5, 12.8 - 49, 40, 76 (Avg:58)
Lightweight
51 Debbie Leary Kerrilea Finesse 1 5:29:22 16.5, 13.0 14.57 38, 46, 49 (Avg:47)
42 Dianne Walsh Razorback Silver Wings 2 5:44:34 15.0, 12.9 13.93 32, 43, 55 (Avg:49)
90 Angela Hawks Rose Gum Tolstoy 3 (BC) 5:55:24 12.9, 14.0 13.51 28, 38, 43 (Avg:40)
305 Julie Carter Castlebar Dude 4 6:14:44 13.1, 12.5 12.81 27, 33, 48 (Avg:40)
192 Indianna Humphries Touchwarr Universe 5 6:14:45 13.1, 12.5 12.81 55, 40, 47 (Avg:43)
125 Brooke Brown-Cordell Vandieman Saladin 6 6:20:12 13.1, 12.1 12.62 39, 51, 45 (Avg:48)
312 Tanya Quarrell-Loone Manhatten ff 7 6:38:15 12.4, 11.6 12.05 38, 41, 45 (Avg:43)
226 Hayley Marshall Rivergum Dream Maker 8 7:09:16 12.1, 10.3 11.18 30, 35, 43 (Avg:39)
290 Heather Colbeck Awarran Park Silver Starlite 9 7:23:51 10.5, 11.1 10.81 39, 45, 43 (Avg:44)
46 Yuki Nishikido Highland View Indian 10 7:53:48 10.1, 10.1 10.13 32, 53, 55 (Avg:54)
12 Anita Hutchins AT Dial Range Sam Heart Rate L2 0:00:00 11.1, 11.5 - 35, 44, 63 (Avg:53)
277 Alesha Laing Awarran Park Royal Rose Lame L2 0:00:00 10.5, 11.1 - 39, 50, 59 (Avg:54)
154 Sarah Parker Aqaba Beesting Withdrawn L2 0:00:00 - - 38, 40, 44 (Avg:42)
74 Felicity Perry Karabil Mahmak Lame L2 0:00:00 12.4, 10.5 - 46, 40, 55 (Avg:47)
70 Chels Royer At Dial Range Tex Heart Rate L2 0:00:00 11.1, 11.5 - 46, 43, 64 (Avg:53)
Junior
66 Bella Pickering Vandieman Phenix 1 6:09:41 13.0, 12.9 12.98 39, 47, 48 (Avg:47)
297 Brittany Farrell Mafnod 2 6:20:28 13.1, 12.0 12.62 31, 40, 46 (Avg:43)
295 Taylor Fuller Warrawee Armanee 3 (BC) 6:38:12 12.4, 11.6 12.05 38, 52, 42 (Avg:47)
291 Takisha Norris Highland View Jess 4 6:59:02 12.4, 10.5 11.45 34, 50, 50 (Avg:50)
308 Ella Carter Ramalea Ned Kelly Lame L2 0:00:00 13.1, 9.0 - 31, 39, 43 (Avg:41)
113 Kirstie Lockhart Razara Momentum Lame L2 0:00:00 18.7, 15.7 - 43, 54, 50 (Avg:52)
127 Jaz Hutchins AT Dial Range Bill Lame L1 0:00:00 11.1 - 33, 43 (Avg:43)